createdAt,value
2023-03-01T00:03:19.193Z,27.56
2023-03-01T00:04:19.511Z,32.97
2023-03-01T00:05:20.100Z,31.94
2023-03-01T00:06:19.041Z,32.94
2023-03-01T00:07:20.543Z,33.03
2023-03-01T00:08:21.368Z,31.95
2023-03-01T00:09:20.539Z,31.02
2023-03-01T00:19:59.083Z,31.22
2023-03-01T00:20:58.975Z,31.13
2023-03-01T00:21:58.674Z,31.27
2023-03-01T00:22:58.646Z,30.74
2023-03-01T00:23:58.622Z,29.98
2023-03-01T00:24:58.613Z,32.03
2023-03-01T00:25:58.711Z,29.74
2023-03-01T00:26:58.597Z,31.69
2023-03-01T00:27:58.610Z,30.92
2023-03-01T00:28:58.712Z,31.33
2023-03-01T00:29:58.540Z,30.62
2023-03-01T00:30:58.673Z,30.18
2023-03-01T00:31:58.691Z,29.54
2023-03-01T00:32:58.525Z,33.28
2023-03-01T00:33:58.633Z,30.89
2023-03-01T00:34:58.557Z,32.24
2023-03-01T00:35:58.583Z,32.36
2023-03-01T00:36:58.608Z,30.71
2023-03-01T01:44:21.541Z,37.94
2023-03-01T01:46:21.227Z,35.95
2023-03-01T01:47:21.323Z,36.18
2023-03-01T01:48:21.106Z,34.41
2023-03-01T01:49:21.098Z,34.27
2023-03-01T01:57:23.468Z,24.89
2023-03-01T02:09:23.275Z,33.04
2023-03-01T02:10:23.537Z,33.90
2023-03-01T02:11:23.353Z,34.42
2023-03-01T02:12:23.138Z,32.59
2023-03-01T02:13:23.122Z,34.00
2023-03-01T02:14:23.153Z,34.32
2023-03-01T02:15:23.116Z,32.93
2023-03-01T02:16:23.270Z,34.40
2023-03-01T02:17:23.096Z,31.35
2023-03-01T02:23:19.619Z,33.91
2023-03-01T02:24:23.010Z,33.14
2023-03-01T02:25:23.174Z,33.19
2023-03-01T02:26:22.883Z,33.17
2023-03-01T02:27:22.970Z,33.91
2023-03-01T02:28:22.865Z,32.15
2023-03-01T02:45:57.264Z,13.51
2023-03-01T02:48:16.597Z,26.39
2023-03-01T02:49:16.871Z,29.30
2023-03-01T02:53:57.669Z,25.63
2023-03-01T02:54:58.610Z,28.30
2023-03-01T02:57:17.114Z,26.04
2023-03-01T02:58:16.906Z,27.56
2023-03-01T02:59:17.052Z,26.17
2023-03-01T03:00:16.764Z,25.36
2023-03-01T03:01:16.898Z,28.23
2023-03-01T03:02:16.781Z,28.40
2023-03-01T03:03:16.777Z,26.03
2023-03-01T03:04:16.765Z,24.36
2023-03-01T03:05:16.786Z,24.53
2023-03-01T03:06:16.965Z,24.11
2023-03-01T03:07:16.774Z,24.75
2023-03-01T03:08:16.734Z,25.07
2023-03-01T03:09:16.910Z,25.32
2023-03-01T03:10:16.695Z,24.43
2023-03-01T03:11:16.748Z,24.81
2023-03-01T03:12:16.694Z,25.22
2023-03-01T03:13:16.747Z,23.89
2023-03-01T03:14:16.731Z,25.63
2023-03-01T03:15:16.729Z,25.17
2023-03-01T03:16:16.717Z,26.67
2023-03-01T03:17:16.674Z,24.48
2023-03-01T03:18:16.671Z,25.35
2023-03-01T03:19:16.647Z,24.63
2023-03-01T03:20:16.679Z,26.84
2023-03-01T03:23:59.020Z,27.48
2023-03-01T03:24:57.020Z,29.91
2023-03-01T03:25:56.637Z,26.19
2023-03-01T03:26:56.612Z,25.03
2023-03-01T03:27:56.589Z,24.31
2023-03-01T03:28:56.649Z,24.52
2023-03-01T03:29:56.556Z,23.83
2023-03-01T03:30:56.562Z,25.03
2023-03-01T03:31:56.645Z,25.38
2023-03-01T03:32:56.575Z,24.78
2023-03-01T03:33:56.527Z,24.66
2023-03-01T03:34:56.536Z,25.04
2023-03-01T04:45:30.146Z,16.80
2023-03-01T04:46:30.360Z,33.91
2023-03-01T04:47:30.261Z,31.41
2023-03-01T04:48:29.927Z,31.70
2023-03-01T04:49:29.887Z,30.53
2023-03-01T04:50:29.870Z,32.21
2023-03-01T04:51:29.929Z,31.88
2023-03-01T04:52:29.872Z,31.66
2023-03-01T04:53:30.064Z,30.28
2023-03-01T04:54:29.907Z,29.84
2023-03-01T04:55:29.841Z,30.21
2023-03-01T04:56:30.098Z,31.51
2023-03-01T04:57:29.813Z,30.20
2023-03-01T04:58:29.845Z,31.81
2023-03-01T04:59:29.827Z,30.67
2023-03-01T05:00:29.827Z,29.23
2023-03-01T05:01:29.833Z,29.54
2023-03-01T05:02:29.873Z,31.99
2023-03-01T05:03:29.803Z,30.57
2023-03-01T05:04:29.863Z,30.07
2023-03-01T05:05:29.822Z,30.16
2023-03-01T05:06:30.126Z,28.76
2023-03-01T05:07:29.827Z,29.40
2023-03-01T05:08:29.867Z,26.15
2023-03-01T05:09:29.912Z,27.99
2023-03-01T05:10:30.003Z,26.37
2023-03-01T05:11:30.011Z,27.20
2023-03-01T05:12:30.030Z,26.05
2023-03-01T05:13:30.043Z,25.91
2023-03-01T05:14:30.103Z,29.23
2023-03-01T05:15:30.198Z,26.46
2023-03-01T05:16:30.426Z,26.94
2023-03-01T05:17:30.170Z,26.34
2023-03-01T05:18:30.217Z,26.07
2023-03-01T05:19:30.224Z,25.66
2023-03-01T05:20:30.190Z,26.38
2023-03-01T05:21:30.236Z,27.19
2023-03-01T05:22:30.312Z,25.46
2023-03-01T05:23:30.308Z,25.92
2023-03-01T05:24:30.336Z,26.09
2023-03-01T05:25:30.368Z,24.02
2023-03-01T05:26:30.366Z,26.50
2023-03-01T05:27:30.447Z,25.83
2023-03-01T05:28:30.426Z,24.92
2023-03-01T05:29:30.479Z,23.98
2023-03-01T05:30:30.480Z,23.26
2023-03-01T05:31:30.584Z,24.09
2023-03-01T05:33:30.630Z,26.37
2023-03-01T06:47:30.691Z,18.23
2023-03-01T06:48:31.003Z,19.29
2023-03-01T06:49:30.565Z,18.62
2023-03-01T06:50:30.571Z,18.45
2023-03-01T06:51:31.434Z,18.84
2023-03-01T06:52:30.413Z,18.23
2023-03-01T07:03:50.174Z,19.14
2023-03-01T07:53:15.406Z,13.88
2023-03-01T07:54:15.548Z,21.26
2023-03-01T07:55:15.091Z,21.28
2023-03-01T07:56:30.482Z,20.82
2023-03-01T07:57:14.915Z,21.00
2023-03-01T07:58:15.341Z,20.97
2023-03-01T07:59:14.882Z,21.13
2023-03-01T08:00:14.926Z,22.36
2023-03-01T08:01:15.610Z,23.40
2023-03-01T08:02:14.855Z,23.41
2023-03-01T08:03:14.861Z,27.08
2023-03-01T08:04:14.834Z,26.35
2023-03-01T08:05:14.813Z,26.42
2023-03-01T08:06:14.759Z,24.79
2023-03-01T08:07:14.781Z,24.78
2023-03-01T08:08:14.831Z,24.11
2023-03-01T08:09:14.740Z,24.10
2023-03-01T08:10:14.769Z,22.87
2023-03-01T08:11:14.761Z,22.97
2023-03-01T08:12:14.715Z,21.25
2023-03-01T08:13:15.196Z,22.89
2023-03-01T08:14:14.802Z,24.57
2023-03-01T08:15:14.724Z,24.18
2023-03-01T08:16:14.793Z,24.07
2023-03-01T08:17:14.760Z,24.82
2023-03-01T08:18:14.830Z,24.25
2023-03-01T08:19:14.798Z,20.54
2023-03-01T08:20:14.820Z,20.36
2023-03-01T08:21:14.830Z,21.81
2023-03-01T08:22:15.028Z,20.72
2023-03-01T08:24:15.012Z,19.66
2023-03-01T08:25:14.951Z,18.99
2023-03-01T08:26:14.955Z,18.50
2023-03-01T08:27:14.999Z,20.76
2023-03-01T08:29:15.137Z,21.07
2023-03-01T08:30:15.160Z,20.81
2023-03-01T08:31:15.329Z,20.22
2023-03-01T08:32:15.642Z,20.05
2023-03-01T08:34:15.320Z,19.49
2023-03-01T08:35:15.700Z,18.64
2023-03-01T08:36:15.448Z,18.60
2023-03-01T08:37:15.438Z,18.00
2023-03-01T08:58:31.187Z,22.67
2023-03-01T09:04:16.172Z,19.74
2023-03-01T09:29:29.492Z,12.18
2023-03-01T09:42:55.045Z,15.29
2023-03-01T09:43:50.844Z,19.98
2023-03-01T09:47:31.091Z,20.35
2023-03-01T09:49:50.047Z,12.07
2023-03-01T09:51:05.023Z,16.49
2023-03-01T09:51:49.656Z,17.13
2023-03-01T09:52:49.799Z,15.22
2023-03-01T09:53:49.605Z,12.88
2023-03-01T09:54:49.645Z,13.64
2023-03-01T09:55:49.586Z,12.17
2023-03-01T09:56:49.633Z,19.09
2023-03-01T09:58:49.797Z,21.41
2023-03-01T09:59:50.218Z,19.32
2023-03-01T10:00:50.036Z,19.90
2023-03-01T10:01:50.154Z,19.44
2023-03-01T10:02:50.582Z,19.48
2023-03-01T10:03:51.772Z,20.14
2023-03-01T10:04:50.127Z,19.56
2023-03-01T10:06:04.966Z,18.97
2023-03-01T10:06:49.624Z,19.19
2023-03-01T10:14:49.473Z,21.27
2023-03-01T10:15:49.570Z,21.48
2023-03-01T10:16:49.479Z,19.34
2023-03-01T10:17:49.497Z,19.38
2023-03-01T10:18:49.456Z,20.17
2023-03-01T10:19:49.459Z,19.91
2023-03-01T10:20:49.477Z,18.39
2023-03-01T10:25:49.453Z,20.65
2023-03-01T11:03:08.385Z,19.96
2023-03-01T11:15:08.407Z,20.30
2023-03-01T11:21:28.264Z,20.23
2023-03-01T11:22:27.903Z,19.98
2023-03-01T11:23:29.008Z,20.22
2023-03-01T11:25:48.010Z,19.12
2023-03-01T11:26:47.491Z,20.77
2023-03-01T11:27:47.474Z,19.67
2023-03-01T11:28:47.881Z,20.37
2023-03-01T11:29:49.026Z,20.54
2023-03-01T11:30:53.088Z,19.04
2023-03-01T11:31:57.285Z,20.50
2023-03-01T11:32:48.415Z,20.56
2023-03-01T11:33:47.327Z,20.37
2023-03-01T11:34:47.326Z,20.41
2023-03-01T11:39:06.886Z,18.12
2023-03-01T11:41:06.974Z,19.95
2023-03-01T11:42:18.068Z,20.12
2023-03-01T11:49:08.193Z,9.71
2023-03-01T11:50:07.638Z,21.49
2023-03-01T11:51:08.387Z,19.82
2023-03-01T11:53:07.106Z,19.67
2023-03-01T13:23:39.959Z,23.34
2023-03-01T13:33:39.924Z,22.28
2023-03-01T14:13:37.403Z,16.19
2023-03-01T14:22:35.278Z,18.17
2023-03-01T14:23:34.635Z,17.79
2023-03-01T14:24:34.688Z,17.77
2023-03-01T14:25:34.658Z,17.41
2023-03-01T14:26:34.614Z,18.89
2023-03-01T14:27:34.699Z,16.91
2023-03-01T14:28:34.667Z,17.83
2023-03-01T14:29:34.624Z,18.24
2023-03-01T14:30:34.624Z,18.02
2023-03-01T14:31:40.982Z,18.53
2023-03-01T14:52:34.694Z,19.19
2023-03-01T14:53:45.830Z,18.50
2023-03-01T14:54:35.669Z,19.65
2023-03-01T14:55:34.704Z,19.31
2023-03-01T14:56:34.665Z,19.07
2023-03-01T14:57:34.684Z,18.89
2023-03-01T14:58:34.855Z,19.90
2023-03-01T14:59:34.690Z,19.38
2023-03-01T15:07:34.584Z,19.32
2023-03-01T15:08:34.599Z,18.88
2023-03-01T15:09:34.810Z,17.82
2023-03-01T15:10:34.724Z,18.24
2023-03-01T15:11:35.191Z,18.81
2023-03-01T15:12:34.860Z,19.40
2023-03-01T15:13:34.839Z,17.98
2023-03-01T15:14:34.952Z,17.79
2023-03-01T16:01:54.563Z,20.38
2023-03-01T16:29:54.379Z,23.52
2023-03-01T16:30:54.407Z,20.95
2023-03-01T16:31:54.502Z,23.45
2023-03-01T16:32:54.513Z,22.31
2023-03-01T16:33:54.537Z,23.23
2023-03-01T16:34:54.546Z,23.09
2023-03-01T16:35:54.596Z,23.21
2023-03-01T17:48:13.947Z,34.11
2023-03-01T17:49:14.107Z,33.71
2023-03-01T17:50:13.907Z,31.64
2023-03-01T18:14:49.839Z,33.29
2023-03-01T19:01:13.145Z,34.12
2023-03-01T19:02:13.186Z,34.61
2023-03-01T19:03:12.931Z,34.94
2023-03-01T19:37:32.866Z,35.53
2023-03-01T19:38:32.875Z,34.57
2023-03-01T19:39:32.852Z,36.41
2023-03-01T19:40:32.832Z,35.19
2023-03-01T19:41:32.859Z,36.71
2023-03-01T19:42:32.849Z,35.15
2023-03-01T19:48:23.791Z,26.71
2023-03-01T19:49:23.594Z,36.88
2023-03-01T19:50:23.390Z,36.23
2023-03-01T20:02:57.432Z,12.14
2023-03-01T20:03:57.355Z,37.17
2023-03-01T20:09:57.107Z,33.53
2023-03-01T20:12:16.721Z,35.01
2023-03-01T20:13:16.668Z,36.34
2023-03-01T20:14:16.604Z,36.80
2023-03-01T20:15:16.580Z,35.02
2023-03-01T20:16:16.611Z,37.43
2023-03-01T20:17:16.565Z,36.87
2023-03-01T20:18:16.572Z,36.52
2023-03-01T20:19:16.543Z,35.65
2023-03-01T20:20:16.554Z,37.46
2023-03-01T20:21:24.794Z,39.98
2023-03-01T20:22:17.906Z,39.00
2023-03-01T20:23:16.548Z,38.10
2023-03-01T20:24:16.535Z,36.70
2023-03-01T20:25:16.566Z,37.55
2023-03-01T20:26:16.595Z,38.49
2023-03-01T20:27:16.507Z,36.61
2023-03-01T20:28:16.491Z,36.42
2023-03-01T20:29:16.485Z,35.01
2023-03-01T20:30:16.493Z,37.13
2023-03-01T20:31:16.518Z,38.22
2023-03-01T20:32:16.579Z,37.12
2023-03-01T20:33:16.476Z,35.88
2023-03-01T20:34:16.478Z,38.07
2023-03-01T20:35:16.433Z,37.80
2023-03-01T20:36:16.467Z,37.26
2023-03-01T20:37:16.446Z,42.71
2023-03-01T20:38:16.481Z,39.78
2023-03-01T20:39:16.581Z,41.00
2023-03-01T20:40:16.730Z,43.19
2023-03-01T20:41:16.602Z,43.11
2023-03-01T20:42:16.625Z,40.37
2023-03-01T20:43:16.602Z,37.79
2023-03-01T20:44:16.683Z,37.30
2023-03-01T20:45:16.641Z,36.99
2023-03-01T20:46:16.745Z,38.29
2023-03-01T20:47:16.732Z,37.08
2023-03-01T20:48:16.741Z,37.03
2023-03-01T20:49:16.803Z,36.29
2023-03-01T20:50:16.865Z,37.71
2023-03-01T20:51:16.882Z,36.46
2023-03-01T20:52:16.995Z,37.60
2023-03-01T20:53:17.018Z,39.18
2023-03-01T20:54:17.003Z,37.65
2023-03-01T20:55:17.077Z,39.54
2023-03-01T20:56:17.044Z,38.67
2023-03-01T20:57:17.066Z,37.95
2023-03-01T20:58:17.112Z,37.26
2023-03-01T20:59:17.129Z,35.62
2023-03-01T21:00:17.150Z,37.09
2023-03-01T21:01:17.240Z,37.39
2023-03-01T21:02:17.217Z,36.13
2023-03-01T21:03:17.240Z,35.45
2023-03-01T21:04:17.365Z,37.99
2023-03-01T21:05:17.246Z,40.90
2023-03-01T21:06:17.302Z,38.24
2023-03-01T21:07:17.262Z,38.53
2023-03-01T21:08:17.302Z,37.08
2023-03-01T21:09:17.327Z,40.15
2023-03-01T21:10:17.438Z,37.90
2023-03-01T21:11:17.510Z,36.60
2023-03-01T21:12:17.443Z,38.16
2023-03-01T21:13:17.384Z,37.70
2023-03-01T21:14:17.428Z,39.47
2023-03-01T21:15:28.330Z,39.39
2023-03-01T21:16:18.534Z,37.34
2023-03-01T21:17:17.417Z,38.58
2023-03-01T21:18:17.424Z,38.81
2023-03-01T21:19:17.438Z,40.06
2023-03-01T21:20:17.402Z,38.07
2023-03-01T21:21:17.402Z,38.77
2023-03-01T21:22:17.420Z,39.33
2023-03-01T21:23:17.379Z,38.66
2023-03-01T21:24:17.464Z,38.56
2023-03-01T21:25:17.414Z,39.47
2023-03-01T21:26:17.398Z,38.43
2023-03-01T21:27:17.404Z,37.44
2023-03-01T21:28:17.504Z,40.04
2023-03-01T21:29:17.556Z,40.55
2023-03-01T21:30:17.635Z,38.89
2023-03-01T21:31:17.715Z,40.48
2023-03-01T21:32:17.878Z,38.84
2023-03-01T21:33:17.777Z,39.94
2023-03-01T21:34:17.877Z,38.65
2023-03-01T21:35:17.958Z,39.23
2023-03-01T21:36:17.928Z,39.90
2023-03-01T21:37:17.930Z,38.57
2023-03-01T21:38:17.935Z,37.74
2023-03-01T21:39:18.022Z,38.34
2023-03-01T21:40:18.050Z,38.14
2023-03-01T21:41:18.033Z,38.35
2023-03-01T21:42:18.074Z,37.83
2023-03-01T21:43:18.112Z,38.02
2023-03-01T21:44:18.295Z,38.14
2023-03-01T21:45:18.179Z,38.01
2023-03-01T21:46:18.204Z,38.62
2023-03-01T21:47:18.284Z,38.10
2023-03-01T21:48:18.264Z,40.58
2023-03-01T21:49:18.318Z,36.83
2023-03-01T21:50:18.325Z,37.29
2023-03-01T21:51:18.424Z,37.35
2023-03-01T21:52:18.438Z,35.36
2023-03-01T21:53:18.470Z,38.05
2023-03-01T21:54:18.532Z,35.40
2023-03-01T21:55:18.613Z,33.88
2023-03-01T21:56:18.677Z,35.12
2023-03-01T21:57:18.639Z,36.56
2023-03-01T21:58:18.668Z,35.78
2023-03-01T21:59:18.766Z,36.43
2023-03-01T22:00:18.770Z,36.49
2023-03-01T22:01:18.919Z,35.72
2023-03-01T22:02:18.858Z,33.82
2023-03-01T22:03:18.918Z,36.52
2023-03-01T22:04:18.915Z,34.82
2023-03-01T22:05:18.979Z,35.34
2023-03-01T22:06:30.011Z,34.01
2023-03-01T22:07:20.033Z,34.43
2023-03-01T22:08:18.998Z,35.38
2023-03-01T22:09:19.048Z,34.46
2023-03-01T22:10:18.992Z,34.16
2023-03-01T22:11:19.009Z,34.52
2023-03-01T22:12:18.975Z,34.90
2023-03-01T22:14:39.015Z,34.21
2023-03-01T22:15:39.031Z,34.61
2023-03-01T22:16:38.859Z,32.21
2023-03-01T22:17:38.739Z,33.11
2023-03-01T22:18:38.813Z,34.29
2023-03-01T22:19:38.740Z,33.29
2023-03-01T22:20:38.764Z,34.53
2023-03-01T22:21:38.698Z,34.06
2023-03-01T22:23:59.146Z,32.81
2023-03-01T22:24:58.947Z,34.19
2023-03-01T22:25:59.150Z,32.64
2023-03-01T22:26:58.915Z,34.75
2023-03-01T22:27:58.875Z,32.73
2023-03-01T22:28:58.912Z,33.40
2023-03-01T22:29:58.841Z,32.37
2023-03-01T22:30:58.849Z,35.51
2023-03-01T22:31:58.959Z,34.91
2023-03-01T22:32:58.835Z,35.33
2023-03-01T22:33:58.830Z,35.19
2023-03-01T22:34:58.851Z,35.58
2023-03-01T22:35:58.889Z,34.06
2023-03-01T22:36:58.838Z,34.25
2023-03-01T22:37:58.809Z,34.38
2023-03-01T22:38:58.795Z,34.81
2023-03-01T22:39:58.753Z,33.89
2023-03-01T22:40:58.784Z,34.18
2023-03-01T22:41:58.764Z,36.59
2023-03-01T22:42:58.815Z,36.90
2023-03-01T22:43:58.787Z,35.86
2023-03-01T22:44:58.796Z,36.18
2023-03-01T22:45:58.770Z,35.57
2023-03-01T22:46:58.793Z,36.27
2023-03-01T22:47:58.734Z,34.77
2023-03-01T22:48:58.729Z,34.67
2023-03-01T22:49:58.732Z,35.09
2023-03-01T22:50:58.748Z,35.54
2023-03-01T22:52:00.371Z,36.36
2023-03-01T22:52:58.699Z,36.01
2023-03-01T22:53:58.766Z,36.65
2023-03-01T22:54:58.680Z,34.08
2023-03-01T22:55:58.709Z,36.04
2023-03-01T22:56:58.740Z,37.26
2023-03-01T22:57:58.818Z,38.30
2023-03-01T22:58:58.790Z,36.91
2023-03-01T22:59:58.825Z,37.00
2023-03-01T23:00:58.854Z,37.96
2023-03-01T23:01:58.892Z,38.00
2023-03-01T23:02:58.965Z,34.88
2023-03-01T23:03:58.982Z,36.77
2023-03-01T23:04:59.011Z,37.68
2023-03-01T23:05:59.006Z,38.54
2023-03-01T23:06:59.061Z,36.91
2023-03-01T23:07:59.034Z,36.63
2023-03-01T23:08:59.170Z,36.87
2023-03-01T23:09:59.152Z,36.55
2023-03-01T23:10:59.204Z,35.71
2023-03-01T23:11:59.257Z,35.75
2023-03-01T23:13:59.394Z,40.41
2023-03-01T23:39:16.948Z,39.01
